sensor_id;sensor_type;location;lat;lon;timestamp;temperature;humidity
5576;DHT22;2810;50.134;8.626;2022-09-09T00:00:23;17.10;99.90
5576;DHT22;2810;50.134;8.626;2022-09-09T00:03:05;17.20;99.90
5576;DHT22;2810;50.134;8.626;2022-09-09T00:05:36;17.00;99.90
5576;DHT22;2810;50.134;8.626;2022-09-09T00:08:04;17.00;99.90
5576;DHT22;2810;50.134;8.626;2022-09-09T00:10:30;17.00;99.90
5576;DHT22;2810;50.134;8.626;2022-09-09T00:15:53;16.90;99.90
5576;DHT22;2810;50.134;8.626;2022-09-09T00:21:05;16.80;99.90
5576;DHT22;2810;50.134;8.626;2022-09-09T00:23:38;16.80;99.90
5576;DHT22;2810;50.134;8.626;2022-09-09T00:29:13;16.70;99.90
5576;DHT22;2810;50.134;8.626;2022-09-09T00:31:40;16.60;99.90
5576;DHT22;2810;50.134;8.626;2022-09-09T00:36:40;16.60;99.90
5576;DHT22;2810;50.134;8.626;2022-09-09T00:39:08;16.60;99.90
5576;DHT22;2810;50.134;8.626;2022-09-09T00:44:02;16.50;99.90
5576;DHT22;2810;50.134;8.626;2022-09-09T00:46:33;16.50;99.90
5576;DHT22;2810;50.134;8.626;2022-09-09T00:54:22;16.50;99.90
5576;DHT22;2810;50.134;8.626;2022-09-09T00:59:24;16.40;99.90
5576;DHT22;2810;50.134;8.626;2022-09-09T01:01:52;16.40;99.90
5576;DHT22;2810;50.134;8.626;2022-09-09T01:04:20;16.40;99.90
5576;DHT22;2810;50.134;8.626;2022-09-09T01:06:49;16.40;99.90
5576;DHT22;2810;50.134;8.626;2022-09-09T01:09:25;16.40;99.90
5576;DHT22;2810;50.134;8.626;2022-09-09T01:11:57;16.40;99.90
5576;DHT22;2810;50.134;8.626;2022-09-09T01:17:05;16.40;99.90
5576;DHT22;2810;50.134;8.626;2022-09-09T01:19:40;16.30;99.90
5576;DHT22;2810;50.134;8.626;2022-09-09T01:24:38;16.30;99.90
5576;DHT22;2810;50.134;8.626;2022-09-09T01:27:05;16.30;99.90
5576;DHT22;2810;50.134;8.626;2022-09-09T01:29:31;16.20;99.90
5576;DHT22;2810;50.134;8.626;2022-09-09T01:32:01;16.10;99.90
5576;DHT22;2810;50.134;8.626;2022-09-09T01:34:28;16.30;99.90
5576;DHT22;2810;50.134;8.626;2022-09-09T01:36:59;16.00;99.90
5576;DHT22;2810;50.134;8.626;2022-09-09T01:39:27;16.00;99.90
5576;DHT22;2810;50.134;8.626;2022-09-09T01:41:53;16.00;99.90
5576;DHT22;2810;50.134;8.626;2022-09-09T01:44:19;16.00;99.90
5576;DHT22;2810;50.134;8.626;2022-09-09T01:46:44;16.00;99.90
5576;DHT22;2810;50.134;8.626;2022-09-09T01:49:10;15.90;99.90
5576;DHT22;2810;50.134;8.626;2022-09-09T01:51:36;15.90;99.90
5576;DHT22;2810;50.134;8.626;2022-09-09T01:54:04;15.80;99.90
5576;DHT22;2810;50.134;8.626;2022-09-09T01:56:35;15.80;99.90
5576;DHT22;2810;50.134;8.626;2022-09-09T02:04:19;15.80;99.90
5576;DHT22;2810;50.134;8.626;2022-09-09T02:06:47;15.80;99.90
5576;DHT22;2810;50.134;8.626;2022-09-09T02:09:13;15.80;99.90
5576;DHT22;2810;50.134;8.626;2022-09-09T02:11:42;15.80;99.90
5576;DHT22;2810;50.134;8.626;2022-09-09T02:14:10;15.80;99.90
5576;DHT22;2810;50.134;8.626;2022-09-09T02:16:44;15.90;99.90
5576;DHT22;2810;50.134;8.626;2022-09-09T02:21:38;15.90;99.90
5576;DHT22;2810;50.134;8.626;2022-09-09T02:24:05;15.90;99.90
5576;DHT22;2810;50.134;8.626;2022-09-09T02:26:33;15.90;99.90
5576;DHT22;2810;50.134;8.626;2022-09-09T02:29:01;15.90;99.90
5576;DHT22;2810;50.134;8.626;2022-09-09T02:31:27;16.00;99.90
5576;DHT22;2810;50.134;8.626;2022-09-09T02:33:57;16.00;99.90
5576;DHT22;2810;50.134;8.626;2022-09-09T02:36:24;16.00;99.90
5576;DHT22;2810;50.134;8.626;2022-09-09T02:38:50;16.10;99.90
5576;DHT22;2810;50.134;8.626;2022-09-09T02:41:35;16.30;99.90
5576;DHT22;2810;50.134;8.626;2022-09-09T02:44:01;16.20;99.90
5576;DHT22;2810;50.134;8.626;2022-09-09T02:49:06;16.20;99.90
5576;DHT22;2810;50.134;8.626;2022-09-09T02:51:51;16.20;99.90
5576;DHT22;2810;50.134;8.626;2022-09-09T02:54:30;16.30;99.90
5576;DHT22;2810;50.134;8.626;2022-09-09T02:56:57;16.20;99.90
5576;DHT22;2810;50.134;8.626;2022-09-09T02:59:24;16.30;99.90
5576;DHT22;2810;50.134;8.626;2022-09-09T03:01:50;16.30;99.90
5576;DHT22;2810;50.134;8.626;2022-09-09T03:04:15;16.30;99.90
5576;DHT22;2810;50.134;8.626;2022-09-09T03:06:41;16.30;99.90
5576;DHT22;2810;50.134;8.626;2022-09-09T03:09:06;16.20;99.90
5576;DHT22;2810;50.134;8.626;2022-09-09T03:11:33;16.60;99.90
5576;DHT22;2810;50.134;8.626;2022-09-09T03:13:58;16.30;99.90
5576;DHT22;2810;50.134;8.626;2022-09-09T03:16:24;16.30;99.90
5576;DHT22;2810;50.134;8.626;2022-09-09T03:18:49;16.30;99.90
5576;DHT22;2810;50.134;8.626;2022-09-09T03:21:15;16.20;99.90
5576;DHT22;2810;50.134;8.626;2022-09-09T03:23:40;16.30;99.90
5576;DHT22;2810;50.134;8.626;2022-09-09T03:26:06;16.20;99.90
5576;DHT22;2810;50.134;8.626;2022-09-09T03:28:32;16.20;99.90
5576;DHT22;2810;50.134;8.626;2022-09-09T03:30:59;16.20;99.90
5576;DHT22;2810;50.134;8.626;2022-09-09T03:33:24;16.20;99.90
5576;DHT22;2810;50.134;8.626;2022-09-09T03:35:50;16.20;99.90
5576;DHT22;2810;50.134;8.626;2022-09-09T03:38:15;16.10;99.90
5576;DHT22;2810;50.134;8.626;2022-09-09T03:40:48;16.10;99.90
5576;DHT22;2810;50.134;8.626;2022-09-09T03:43:13;16.10;99.90
5576;DHT22;2810;50.134;8.626;2022-09-09T03:45:45;16.10;99.90
5576;DHT22;2810;50.134;8.626;2022-09-09T03:48:12;16.20;99.90
5576;DHT22;2810;50.134;8.626;2022-09-09T03:50:37;16.20;99.90
5576;DHT22;2810;50.134;8.626;2022-09-09T03:53:02;16.20;99.90
5576;DHT22;2810;50.134;8.626;2022-09-09T03:55:28;16.10;99.90
5576;DHT22;2810;50.134;8.626;2022-09-09T03:57:53;16.20;99.90
5576;DHT22;2810;50.134;8.626;2022-09-09T04:00:19;16.20;99.90
5576;DHT22;2810;50.134;8.626;2022-09-09T04:02:44;16.20;99.90
5576;DHT22;2810;50.134;8.626;2022-09-09T04:05:10;16.20;99.90
5576;DHT22;2810;50.134;8.626;2022-09-09T04:07:36;16.20;99.90
5576;DHT22;2810;50.134;8.626;2022-09-09T04:10:02;16.30;99.90
5576;DHT22;2810;50.134;8.626;2022-09-09T04:12:27;16.30;99.90
5576;DHT22;2810;50.134;8.626;2022-09-09T04:14:52;16.20;99.90
5576;DHT22;2810;50.134;8.626;2022-09-09T04:17:18;16.20;99.90
5576;DHT22;2810;50.134;8.626;2022-09-09T04:19:43;16.20;99.90
5576;DHT22;2810;50.134;8.626;2022-09-09T04:22:09;16.20;99.90
5576;DHT22;2810;50.134;8.626;2022-09-09T04:24:34;16.10;99.90
5576;DHT22;2810;50.134;8.626;2022-09-09T04:27:00;16.10;99.90
5576;DHT22;2810;50.134;8.626;2022-09-09T04:29:26;16.10;99.90
5576;DHT22;2810;50.134;8.626;2022-09-09T04:31:51;16.10;99.90
5576;DHT22;2810;50.134;8.626;2022-09-09T04:34:16;16.10;99.90
5576;DHT22;2810;50.134;8.626;2022-09-09T04:36:42;16.10;99.90
5576;DHT22;2810;50.134;8.626;2022-09-09T04:39:08;16.10;99.90
5576;DHT22;2810;50.134;8.626;2022-09-09T04:41:33;16.10;99.90
5576;DHT22;2810;50.134;8.626;2022-09-09T04:43:59;16.10;99.90
5576;DHT22;2810;50.134;8.626;2022-09-09T04:46:26;16.00;99.90
5576;DHT22;2810;50.134;8.626;2022-09-09T04:48:51;16.10;99.90
5576;DHT22;2810;50.134;8.626;2022-09-09T04:51:18;16.10;99.90
5576;DHT22;2810;50.134;8.626;2022-09-09T04:53:43;16.20;99.90
5576;DHT22;2810;50.134;8.626;2022-09-09T04:56:10;16.20;99.90
5576;DHT22;2810;50.134;8.626;2022-09-09T04:58:36;16.10;99.90
5576;DHT22;2810;50.134;8.626;2022-09-09T05:01:09;16.30;99.90
5576;DHT22;2810;50.134;8.626;2022-09-09T05:03:34;16.10;99.90
5576;DHT22;2810;50.134;8.626;2022-09-09T05:06:03;16.10;99.90
5576;DHT22;2810;50.134;8.626;2022-09-09T05:08:29;16.10;99.90
5576;DHT22;2810;50.134;8.626;2022-09-09T05:10:54;16.10;99.90
5576;DHT22;2810;50.134;8.626;2022-09-09T05:13:20;16.10;99.90
5576;DHT22;2810;50.134;8.626;2022-09-09T05:15:52;16.00;99.90
5576;DHT22;2810;50.134;8.626;2022-09-09T05:18:18;16.00;99.90
5576;DHT22;2810;50.134;8.626;2022-09-09T05:20:43;16.00;99.90
5576;DHT22;2810;50.134;8.626;2022-09-09T05:23:09;16.00;99.90
5576;DHT22;2810;50.134;8.626;2022-09-09T05:25:36;16.00;99.90
5576;DHT22;2810;50.134;8.626;2022-09-09T05:28:01;16.00;99.90
5576;DHT22;2810;50.134;8.626;2022-09-09T05:30:27;16.00;99.90
5576;DHT22;2810;50.134;8.626;2022-09-09T05:32:55;16.00;99.90
5576;DHT22;2810;50.134;8.626;2022-09-09T05:35:20;16.00;99.90
5576;DHT22;2810;50.134;8.626;2022-09-09T05:37:46;16.30;99.90
5576;DHT22;2810;50.134;8.626;2022-09-09T05:40:11;16.30;99.90
5576;DHT22;2810;50.134;8.626;2022-09-09T05:42:37;16.20;99.90
5576;DHT22;2810;50.134;8.626;2022-09-09T05:45:04;16.30;99.90
5576;DHT22;2810;50.134;8.626;2022-09-09T05:47:30;16.30;99.90
5576;DHT22;2810;50.134;8.626;2022-09-09T05:49:55;16.40;99.90
5576;DHT22;2810;50.134;8.626;2022-09-09T05:52:20;16.50;99.90
5576;DHT22;2810;50.134;8.626;2022-09-09T05:54:46;16.50;99.90
5576;DHT22;2810;50.134;8.626;2022-09-09T05:57:11;16.50;99.90
5576;DHT22;2810;50.134;8.626;2022-09-09T05:59:37;16.60;99.90
5576;DHT22;2810;50.134;8.626;2022-09-09T06:02:03;16.60;99.90
5576;DHT22;2810;50.134;8.626;2022-09-09T06:04:28;16.60;99.90
5576;DHT22;2810;50.134;8.626;2022-09-09T06:06:55;16.60;99.90
5576;DHT22;2810;50.134;8.626;2022-09-09T06:09:21;16.70;99.90
5576;DHT22;2810;50.134;8.626;2022-09-09T06:11:46;16.80;99.90
5576;DHT22;2810;50.134;8.626;2022-09-09T06:14:12;16.90;99.90
5576;DHT22;2810;50.134;8.626;2022-09-09T06:16:37;16.90;99.90
5576;DHT22;2810;50.134;8.626;2022-09-09T06:19:03;17.10;99.90
5576;DHT22;2810;50.134;8.626;2022-09-09T06:21:33;17.20;99.90
5576;DHT22;2810;50.134;8.626;2022-09-09T06:23:59;17.20;99.90
5576;DHT22;2810;50.134;8.626;2022-09-09T06:26:25;17.30;99.90
5576;DHT22;2810;50.134;8.626;2022-09-09T06:28:51;17.60;99.90
5576;DHT22;2810;50.134;8.626;2022-09-09T06:31:19;18.10;99.90
5576;DHT22;2810;50.134;8.626;2022-09-09T06:33:47;18.30;99.90
5576;DHT22;2810;50.134;8.626;2022-09-09T06:36:13;18.60;99.90
5576;DHT22;2810;50.134;8.626;2022-09-09T06:38:40;19.40;99.90
5576;DHT22;2810;50.134;8.626;2022-09-09T06:41:06;19.70;99.90
5576;DHT22;2810;50.134;8.626;2022-09-09T06:43:31;19.50;99.90
5576;DHT22;2810;50.134;8.626;2022-09-09T06:46:01;19.20;99.90
5576;DHT22;2810;50.134;8.626;2022-09-09T06:48:27;18.90;99.90
5576;DHT22;2810;50.134;8.626;2022-09-09T06:51:12;18.70;99.90
5576;DHT22;2810;50.134;8.626;2022-09-09T06:53:39;18.40;99.90
5576;DHT22;2810;50.134;8.626;2022-09-09T06:58:39;18.10;99.90
5576;DHT22;2810;50.134;8.626;2022-09-09T07:01:12;18.20;99.90
5576;DHT22;2810;50.134;8.626;2022-09-09T07:03:38;18.10;99.90
5576;DHT22;2810;50.134;8.626;2022-09-09T07:06:04;18.00;99.90
5576;DHT22;2810;50.134;8.626;2022-09-09T07:08:29;17.90;99.90
5576;DHT22;2810;50.134;8.626;2022-09-09T07:11:05;18.20;99.90
5576;DHT22;2810;50.134;8.626;2022-09-09T07:13:31;18.00;99.90
5576;DHT22;2810;50.134;8.626;2022-09-09T07:16:30;18.00;99.90
5576;DHT22;2810;50.134;8.626;2022-09-09T07:18:49;18.00;99.90
5576;DHT22;2810;50.134;8.626;2022-09-09T07:21:15;18.00;99.90
5576;DHT22;2810;50.134;8.626;2022-09-09T07:23:41;18.00;99.90
5576;DHT22;2810;50.134;8.626;2022-09-09T07:26:10;18.00;99.90
5576;DHT22;2810;50.134;8.626;2022-09-09T07:28:37;18.00;99.90
5576;DHT22;2810;50.134;8.626;2022-09-09T07:31:03;18.00;99.90
5576;DHT22;2810;50.134;8.626;2022-09-09T07:33:30;18.00;99.90
5576;DHT22;2810;50.134;8.626;2022-09-09T07:36:03;18.00;99.90
5576;DHT22;2810;50.134;8.626;2022-09-09T07:38:29;18.10;99.90
5576;DHT22;2810;50.134;8.626;2022-09-09T07:41:05;18.20;99.90
5576;DHT22;2810;50.134;8.626;2022-09-09T07:43:32;18.20;99.90
5576;DHT22;2810;50.134;8.626;2022-09-09T07:45:59;18.30;99.90
5576;DHT22;2810;50.134;8.626;2022-09-09T07:48:25;18.40;99.90
5576;DHT22;2810;50.134;8.626;2022-09-09T07:50:51;18.50;99.90
5576;DHT22;2810;50.134;8.626;2022-09-09T07:53:16;18.50;99.90
5576;DHT22;2810;50.134;8.626;2022-09-09T07:55:42;18.60;99.90
5576;DHT22;2810;50.134;8.626;2022-09-09T07:58:08;18.50;99.90
5576;DHT22;2810;50.134;8.626;2022-09-09T08:00:33;18.50;99.90
5576;DHT22;2810;50.134;8.626;2022-09-09T08:02:58;18.50;99.90
5576;DHT22;2810;50.134;8.626;2022-09-09T08:05:26;18.40;99.90
5576;DHT22;2810;50.134;8.626;2022-09-09T08:07:51;18.40;99.90
5576;DHT22;2810;50.134;8.626;2022-09-09T08:10:16;18.40;99.90
5576;DHT22;2810;50.134;8.626;2022-09-09T08:12:43;18.40;99.90
5576;DHT22;2810;50.134;8.626;2022-09-09T08:15:08;18.50;99.90
5576;DHT22;2810;50.134;8.626;2022-09-09T08:17:34;18.50;99.90
5576;DHT22;2810;50.134;8.626;2022-09-09T08:19:59;18.80;99.90
5576;DHT22;2810;50.134;8.626;2022-09-09T08:22:30;19.00;99.90
5576;DHT22;2810;50.134;8.626;2022-09-09T08:24:55;19.00;99.90
5576;DHT22;2810;50.134;8.626;2022-09-09T08:27:21;19.00;99.90
5576;DHT22;2810;50.134;8.626;2022-09-09T08:29:47;18.90;99.90
5576;DHT22;2810;50.134;8.626;2022-09-09T08:32:13;18.90;99.90
5576;DHT22;2810;50.134;8.626;2022-09-09T08:34:38;18.80;99.90
5576;DHT22;2810;50.134;8.626;2022-09-09T08:37:05;18.80;99.90
5576;DHT22;2810;50.134;8.626;2022-09-09T08:39:30;18.90;99.90
5576;DHT22;2810;50.134;8.626;2022-09-09T08:44:29;19.80;99.90
5576;DHT22;2810;50.134;8.626;2022-09-09T08:47:10;19.70;99.90
5576;DHT22;2810;50.134;8.626;2022-09-09T08:54:46;19.50;99.90
5576;DHT22;2810;50.134;8.626;2022-09-09T08:57:14;19.40;99.90
5576;DHT22;2810;50.134;8.626;2022-09-09T08:59:42;19.40;99.90
5576;DHT22;2810;50.134;8.626;2022-09-09T09:02:18;19.40;99.90
5576;DHT22;2810;50.134;8.626;2022-09-09T09:10:10;19.70;99.90
5576;DHT22;2810;50.134;8.626;2022-09-09T09:12:38;19.80;99.90
5576;DHT22;2810;50.134;8.626;2022-09-09T09:15:10;19.80;99.90
5576;DHT22;2810;50.134;8.626;2022-09-09T09:17:39;19.70;99.90
5576;DHT22;2810;50.134;8.626;2022-09-09T09:20:06;19.80;99.90
5576;DHT22;2810;50.134;8.626;2022-09-09T09:22:41;19.70;99.90
5576;DHT22;2810;50.134;8.626;2022-09-09T09:27:36;19.80;99.90
5576;DHT22;2810;50.134;8.626;2022-09-09T09:30:18;19.90;99.90
5576;DHT22;2810;50.134;8.626;2022-09-09T09:32:47;20.20;99.90
5576;DHT22;2810;50.134;8.626;2022-09-09T09:35:14;20.50;99.90
5576;DHT22;2810;50.134;8.626;2022-09-09T09:37:40;21.40;99.90
5576;DHT22;2810;50.134;8.626;2022-09-09T09:40:10;23.10;99.90
5576;DHT22;2810;50.134;8.626;2022-09-09T09:42:35;24.40;99.90
5576;DHT22;2810;50.134;8.626;2022-09-09T09:45:18;25.60;99.90
5576;DHT22;2810;50.134;8.626;2022-09-09T09:47:57;25.10;99.90
5576;DHT22;2810;50.134;8.626;2022-09-09T09:50:22;23.60;99.90
5576;DHT22;2810;50.134;8.626;2022-09-09T09:52:58;22.70;99.90
5576;DHT22;2810;50.134;8.626;2022-09-09T09:55:24;21.90;99.90
5576;DHT22;2810;50.134;8.626;2022-09-09T09:57:50;21.50;99.90
5576;DHT22;2810;50.134;8.626;2022-09-09T10:00:17;21.90;99.90
5576;DHT22;2810;50.134;8.626;2022-09-09T10:02:43;22.60;99.90
5576;DHT22;2810;50.134;8.626;2022-09-09T10:05:19;24.20;99.90
5576;DHT22;2810;50.134;8.626;2022-09-09T10:07:45;25.10;99.90
5576;DHT22;2810;50.134;8.626;2022-09-09T10:10:28;25.50;99.90
5576;DHT22;2810;50.134;8.626;2022-09-09T10:13:00;25.80;99.90
5576;DHT22;2810;50.134;8.626;2022-09-09T10:18:35;24.20;99.90
5576;DHT22;2810;50.134;8.626;2022-09-09T10:21:02;24.10;99.90
5576;DHT22;2810;50.134;8.626;2022-09-09T10:36:23;22.60;99.90
5576;DHT22;2810;50.134;8.626;2022-09-09T10:38:54;22.50;99.90
5576;DHT22;2810;50.134;8.626;2022-09-09T11:00:02;19.20;99.90
5576;DHT22;2810;50.134;8.626;2022-09-09T11:02:32;19.30;99.90
5576;DHT22;2810;50.134;8.626;2022-09-09T11:05:00;19.40;99.90
5576;DHT22;2810;50.134;8.626;2022-09-09T11:07:33;19.60;99.90
5576;DHT22;2810;50.134;8.626;2022-09-09T11:10:01;20.90;99.90
5576;DHT22;2810;50.134;8.626;2022-09-09T11:12:28;22.90;99.90
5576;DHT22;2810;50.134;8.626;2022-09-09T11:14:55;24.70;99.90
5576;DHT22;2810;50.134;8.626;2022-09-09T11:17:24;25.30;99.90
5576;DHT22;2810;50.134;8.626;2022-09-09T11:19:52;25.00;99.90
5576;DHT22;2810;50.134;8.626;2022-09-09T11:22:26;24.50;99.90
5576;DHT22;2810;50.134;8.626;2022-09-09T11:24:56;24.80;99.90
5576;DHT22;2810;50.134;8.626;2022-09-09T11:27:30;25.20;99.90
5576;DHT22;2810;50.134;8.626;2022-09-09T11:32:29;24.70;99.90
5576;DHT22;2810;50.134;8.626;2022-09-09T11:35:19;24.00;99.90
5576;DHT22;2810;50.134;8.626;2022-09-09T11:37:54;24.40;99.90
5576;DHT22;2810;50.134;8.626;2022-09-09T11:42:46;23.70;99.90
5576;DHT22;2810;50.134;8.626;2022-09-09T11:45:25;23.50;99.90
5576;DHT22;2810;50.134;8.626;2022-09-09T11:48:00;23.90;99.90
5576;DHT22;2810;50.134;8.626;2022-09-09T11:53:02;25.80;99.10
5576;DHT22;2810;50.134;8.626;2022-09-09T11:55:29;26.70;95.50
5576;DHT22;2810;50.134;8.626;2022-09-09T11:57:57;26.40;93.50
5576;DHT22;2810;50.134;8.626;2022-09-09T12:00:33;25.20;96.70
5576;DHT22;2810;50.134;8.626;2022-09-09T12:02:59;24.20;99.20
5576;DHT22;2810;50.134;8.626;2022-09-09T12:05:34;23.30;99.90
5576;DHT22;2810;50.134;8.626;2022-09-09T12:08:01;22.70;99.90
5576;DHT22;2810;50.134;8.626;2022-09-09T12:10:32;22.90;99.90
5576;DHT22;2810;50.134;8.626;2022-09-09T12:15:54;23.50;99.90
5576;DHT22;2810;50.134;8.626;2022-09-09T12:18:25;23.10;99.90
5576;DHT22;2810;50.134;8.626;2022-09-09T12:23:55;22.60;99.90
5576;DHT22;2810;50.134;8.626;2022-09-09T12:26:41;22.60;99.90
5576;DHT22;2810;50.134;8.626;2022-09-09T12:32:05;22.60;99.90
5576;DHT22;2810;50.134;8.626;2022-09-09T12:34:38;22.50;99.90
5576;DHT22;2810;50.134;8.626;2022-09-09T12:37:06;22.30;99.90
5576;DHT22;2810;50.134;8.626;2022-09-09T12:39:37;22.30;99.90
5576;DHT22;2810;50.134;8.626;2022-09-09T12:42:03;22.00;99.90
5576;DHT22;2810;50.134;8.626;2022-09-09T12:44:29;21.90;99.90
5576;DHT22;2810;50.134;8.626;2022-09-09T12:46:54;21.80;99.90
5576;DHT22;2810;50.134;8.626;2022-09-09T12:49:32;21.50;99.90
5576;DHT22;2810;50.134;8.626;2022-09-09T12:52:04;21.20;99.90
5576;DHT22;2810;50.134;8.626;2022-09-09T12:54:32;20.70;99.90
5576;DHT22;2810;50.134;8.626;2022-09-09T12:56:58;20.20;99.90
5576;DHT22;2810;50.134;8.626;2022-09-09T12:59:25;19.80;99.90
5576;DHT22;2810;50.134;8.626;2022-09-09T13:01:57;19.50;99.90
5576;DHT22;2810;50.134;8.626;2022-09-09T13:04:23;19.30;99.90
5576;DHT22;2810;50.134;8.626;2022-09-09T13:06:48;19.30;99.90
5576;DHT22;2810;50.134;8.626;2022-09-09T13:09:14;19.10;99.90
5576;DHT22;2810;50.134;8.626;2022-09-09T13:11:41;19.10;99.90
5576;DHT22;2810;50.134;8.626;2022-09-09T13:14:34;19.30;99.90
5576;DHT22;2810;50.134;8.626;2022-09-09T13:17:03;19.80;99.90
5576;DHT22;2810;50.134;8.626;2022-09-09T13:19:29;20.50;99.90
5576;DHT22;2810;50.134;8.626;2022-09-09T13:21:56;20.70;99.90
5576;DHT22;2810;50.134;8.626;2022-09-09T13:24:32;20.90;99.90
5576;DHT22;2810;50.134;8.626;2022-09-09T13:29:50;21.70;99.90
5576;DHT22;2810;50.134;8.626;2022-09-09T13:32:16;22.10;99.90
5576;DHT22;2810;50.134;8.626;2022-09-09T13:34:50;22.20;99.90
5576;DHT22;2810;50.134;8.626;2022-09-09T13:37:19;22.10;99.90
5576;DHT22;2810;50.134;8.626;2022-09-09T13:39:50;22.20;99.90
5576;DHT22;2810;50.134;8.626;2022-09-09T13:42:28;22.60;99.90
5576;DHT22;2810;50.134;8.626;2022-09-09T13:44:55;22.80;99.90
5576;DHT22;2810;50.134;8.626;2022-09-09T13:47:22;23.20;99.90
5576;DHT22;2810;50.134;8.626;2022-09-09T13:49:51;23.10;99.90
5576;DHT22;2810;50.134;8.626;2022-09-09T13:52:17;23.40;99.90
5576;DHT22;2810;50.134;8.626;2022-09-09T13:54:47;23.10;99.90
5576;DHT22;2810;50.134;8.626;2022-09-09T13:57:17;22.90;99.90
5576;DHT22;2810;50.134;8.626;2022-09-09T13:59:43;23.00;99.90
5576;DHT22;2810;50.134;8.626;2022-09-09T14:02:09;23.10;99.90
5576;DHT22;2810;50.134;8.626;2022-09-09T14:04:35;23.20;99.90
5576;DHT22;2810;50.134;8.626;2022-09-09T14:07:00;23.00;99.90
5576;DHT22;2810;50.134;8.626;2022-09-09T14:09:26;22.70;99.90
5576;DHT22;2810;50.134;8.626;2022-09-09T14:11:52;22.70;99.90
5576;DHT22;2810;50.134;8.626;2022-09-09T14:14:17;21.90;99.90
5576;DHT22;2810;50.134;8.626;2022-09-09T14:16:43;21.50;99.90
5576;DHT22;2810;50.134;8.626;2022-09-09T14:19:08;21.50;99.90
5576;DHT22;2810;50.134;8.626;2022-09-09T14:21:34;21.00;99.90
5576;DHT22;2810;50.134;8.626;2022-09-09T14:24:00;20.70;99.90
5576;DHT22;2810;50.134;8.626;2022-09-09T14:26:25;20.50;99.90
5576;DHT22;2810;50.134;8.626;2022-09-09T14:28:51;20.50;99.90
5576;DHT22;2810;50.134;8.626;2022-09-09T14:31:17;20.40;99.90
5576;DHT22;2810;50.134;8.626;2022-09-09T14:33:43;20.30;99.90
5576;DHT22;2810;50.134;8.626;2022-09-09T14:36:09;20.30;99.90
5576;DHT22;2810;50.134;8.626;2022-09-09T14:38:35;20.30;99.90
5576;DHT22;2810;50.134;8.626;2022-09-09T14:41:14;20.20;99.90
5576;DHT22;2810;50.134;8.626;2022-09-09T14:43:42;20.10;99.90
5576;DHT22;2810;50.134;8.626;2022-09-09T14:46:08;20.10;99.90
5576;DHT22;2810;50.134;8.626;2022-09-09T14:48:34;20.10;99.90
5576;DHT22;2810;50.134;8.626;2022-09-09T14:51:07;20.10;99.90
5576;DHT22;2810;50.134;8.626;2022-09-09T14:53:33;20.00;99.90
5576;DHT22;2810;50.134;8.626;2022-09-09T14:56:05;20.30;99.90
5576;DHT22;2810;50.134;8.626;2022-09-09T14:58:31;20.00;99.90
5576;DHT22;2810;50.134;8.626;2022-09-09T15:01:03;20.20;99.90
5576;DHT22;2810;50.134;8.626;2022-09-09T15:03:30;20.20;99.90
5576;DHT22;2810;50.134;8.626;2022-09-09T15:05:55;20.30;99.90
5576;DHT22;2810;50.134;8.626;2022-09-09T15:08:23;20.50;99.90
5576;DHT22;2810;50.134;8.626;2022-09-09T15:10:49;20.50;99.90
5576;DHT22;2810;50.134;8.626;2022-09-09T15:13:15;20.60;99.90
5576;DHT22;2810;50.134;8.626;2022-09-09T15:15:42;20.80;99.90
5576;DHT22;2810;50.134;8.626;2022-09-09T15:18:08;20.60;99.90
5576;DHT22;2810;50.134;8.626;2022-09-09T15:20:33;20.60;99.90
5576;DHT22;2810;50.134;8.626;2022-09-09T15:23:00;20.60;99.90
5576;DHT22;2810;50.134;8.626;2022-09-09T15:25:26;20.70;99.90
5576;DHT22;2810;50.134;8.626;2022-09-09T15:27:52;20.70;99.90
5576;DHT22;2810;50.134;8.626;2022-09-09T15:30:17;20.70;99.90
5576;DHT22;2810;50.134;8.626;2022-09-09T15:32:42;21.20;99.90
5576;DHT22;2810;50.134;8.626;2022-09-09T15:35:08;20.90;99.90
5576;DHT22;2810;50.134;8.626;2022-09-09T15:37:33;21.00;99.90
5576;DHT22;2810;50.134;8.626;2022-09-09T15:39:59;20.70;99.90
5576;DHT22;2810;50.134;8.626;2022-09-09T15:42:26;20.90;99.90
5576;DHT22;2810;50.134;8.626;2022-09-09T15:44:51;21.00;99.90
5576;DHT22;2810;50.134;8.626;2022-09-09T15:47:17;20.90;99.90
5576;DHT22;2810;50.134;8.626;2022-09-09T15:49:43;20.30;99.90
5576;DHT22;2810;50.134;8.626;2022-09-09T15:52:09;20.70;99.90
5576;DHT22;2810;50.134;8.626;2022-09-09T15:54:35;20.50;99.90
5576;DHT22;2810;50.134;8.626;2022-09-09T15:57:05;20.40;99.90
5576;DHT22;2810;50.134;8.626;2022-09-09T15:59:31;20.30;99.90
5576;DHT22;2810;50.134;8.626;2022-09-09T16:01:57;20.10;99.90
5576;DHT22;2810;50.134;8.626;2022-09-09T16:04:25;20.20;99.90
5576;DHT22;2810;50.134;8.626;2022-09-09T16:07:09;19.90;99.90
5576;DHT22;2810;50.134;8.626;2022-09-09T16:09:34;19.80;99.90
5576;DHT22;2810;50.134;8.626;2022-09-09T16:12:00;19.80;99.90
5576;DHT22;2810;50.134;8.626;2022-09-09T16:14:27;19.70;99.90
5576;DHT22;2810;50.134;8.626;2022-09-09T16:16:52;19.60;99.90
5576;DHT22;2810;50.134;8.626;2022-09-09T16:19:18;19.60;99.90
5576;DHT22;2810;50.134;8.626;2022-09-09T16:21:45;19.50;99.90
5576;DHT22;2810;50.134;8.626;2022-09-09T16:24:12;19.70;99.90
5576;DHT22;2810;50.134;8.626;2022-09-09T16:26:39;19.50;99.90
5576;DHT22;2810;50.134;8.626;2022-09-09T16:29:05;19.40;99.90
5576;DHT22;2810;50.134;8.626;2022-09-09T16:31:31;19.40;99.90
5576;DHT22;2810;50.134;8.626;2022-09-09T16:33:59;19.40;99.90
5576;DHT22;2810;50.134;8.626;2022-09-09T16:36:25;19.40;99.90
5576;DHT22;2810;50.134;8.626;2022-09-09T16:38:54;19.30;99.90
5576;DHT22;2810;50.134;8.626;2022-09-09T16:41:20;19.30;99.90
5576;DHT22;2810;50.134;8.626;2022-09-09T16:43:46;19.30;99.90
5576;DHT22;2810;50.134;8.626;2022-09-09T16:46:13;19.30;99.90
5576;DHT22;2810;50.134;8.626;2022-09-09T16:48:40;19.30;99.90
5576;DHT22;2810;50.134;8.626;2022-09-09T16:51:06;19.30;99.90
5576;DHT22;2810;50.134;8.626;2022-09-09T16:53:33;19.20;99.90
5576;DHT22;2810;50.134;8.626;2022-09-09T16:56:04;19.20;99.90
5576;DHT22;2810;50.134;8.626;2022-09-09T16:58:30;19.10;99.90
5576;DHT22;2810;50.134;8.626;2022-09-09T17:00:59;19.10;99.90
5576;DHT22;2810;50.134;8.626;2022-09-09T17:03:24;19.10;99.90
5576;DHT22;2810;50.134;8.626;2022-09-09T17:05:50;19.40;99.90
5576;DHT22;2810;50.134;8.626;2022-09-09T17:08:15;19.00;99.90
5576;DHT22;2810;50.134;8.626;2022-09-09T17:10:41;19.00;99.90
5576;DHT22;2810;50.134;8.626;2022-09-09T17:13:07;19.00;99.90
5576;DHT22;2810;50.134;8.626;2022-09-09T17:15:33;19.00;99.90
5576;DHT22;2810;50.134;8.626;2022-09-09T17:17:59;18.90;99.90
5576;DHT22;2810;50.134;8.626;2022-09-09T17:20:25;19.00;99.90
5576;DHT22;2810;50.134;8.626;2022-09-09T17:22:50;18.90;99.90
5576;DHT22;2810;50.134;8.626;2022-09-09T17:25:16;18.90;99.90
5576;DHT22;2810;50.134;8.626;2022-09-09T17:27:42;18.90;99.90
5576;DHT22;2810;50.134;8.626;2022-09-09T17:30:07;18.90;99.90
5576;DHT22;2810;50.134;8.626;2022-09-09T17:32:34;18.80;99.90
5576;DHT22;2810;50.134;8.626;2022-09-09T17:35:01;18.80;99.90
5576;DHT22;2810;50.134;8.626;2022-09-09T17:37:26;18.80;99.90
5576;DHT22;2810;50.134;8.626;2022-09-09T17:39:52;18.80;99.90
5576;DHT22;2810;50.134;8.626;2022-09-09T17:42:17;18.80;99.90
5576;DHT22;2810;50.134;8.626;2022-09-09T17:44:43;18.70;99.90
5576;DHT22;2810;50.134;8.626;2022-09-09T17:47:08;18.70;99.90
5576;DHT22;2810;50.134;8.626;2022-09-09T17:49:34;18.60;99.90
5576;DHT22;2810;50.134;8.626;2022-09-09T17:51:59;18.60;99.90
5576;DHT22;2810;50.134;8.626;2022-09-09T17:54:25;18.60;99.90